Time;durP1;ratioP1;P1;durP2;ratioP2;P2;SDS_P1;SDS_P2;PMS_P1;PMS_P2;Temp;Humidity;BMP_temperature;BMP_pressure;BME280_temperature;BME280_humidity;BME280_pressure;Samples;Min_cycle;Max_cycle;Signal;HPM_P1;HPM_P2
2022/06/08 00:00:07;;;;;;;0.70;0.70;;;17.70;99.90;;;;;;5076753;28;20016;-82
2022/06/08 00:02:33;;;;;;;1.08;0.90;;;17.70;99.90;;;;;;5077333;28;20028;-82
2022/06/08 00:04:59;;;;;;;0.98;0.75;;;17.70;99.90;;;;;;5073912;28;20039;-82
2022/06/08 00:07:25;;;;;;;0.88;0.70;;;17.60;99.90;;;;;;5074072;28;20031;-81
2022/06/08 00:09:51;;;;;;;1.00;0.75;;;17.60;99.90;;;;;;5073557;28;20025;-80
2022/06/08 00:12:16;;;;;;;0.93;0.85;;;17.60;99.90;;;;;;5073986;28;20079;-81
2022/06/08 00:14:43;;;;;;;1.75;0.90;;;17.60;99.90;;;;;;5074201;28;20032;-81
2022/06/08 00:17:08;;;;;;;0.90;0.60;;;17.60;99.90;;;;;;5073679;28;20108;-81
2022/06/08 00:19:34;;;;;;;0.70;0.65;;;17.50;99.90;;;;;;5073899;28;20052;-81
2022/06/08 00:22:00;;;;;;;0.80;0.80;;;17.50;99.90;;;;;;5073436;28;20035;-81
2022/06/08 00:24:26;;;;;;;1.13;0.75;;;17.50;99.90;;;;;;5072955;28;20500;-81
2022/06/08 00:26:51;;;;;;;0.85;0.80;;;17.50;99.90;;;;;;5073216;28;20048;-81
2022/06/08 00:29:17;;;;;;;1.15;0.80;;;17.50;99.90;;;;;;5073352;28;20058;-83
2022/06/08 00:31:43;;;;;;;1.10;1.00;;;17.50;99.90;;;;;;5073542;28;20025;-82
2022/06/08 00:34:09;;;;;;;0.77;0.77;;;17.50;99.90;;;;;;5073160;28;20170;-81
2022/06/08 00:36:34;;;;;;;0.70;0.65;;;17.40;99.90;;;;;;5073605;28;20032;-81
2022/06/08 00:39:00;;;;;;;1.10;0.70;;;17.40;99.90;;;;;;5072918;28;20025;-81
2022/06/08 00:41:52;;;;;;;0.65;0.65;;;17.40;99.90;;;;;;5073927;28;20089;-81
2022/06/08 00:44:30;;;;;;;0.90;0.60;;;17.40;99.90;;;;;;5073297;28;20053;-81
2022/06/08 00:46:58;;;;;;;0.98;0.80;;;17.40;99.90;;;;;;5072869;28;20111;-80
2022/06/08 00:49:32;;;;;;;0.65;0.65;;;17.40;99.90;;;;;;5073260;28;20032;-81
2022/06/08 00:52:00;;;;;;;0.70;0.70;;;17.30;99.90;;;;;;5072866;28;20379;-81
2022/06/08 00:54:31;;;;;;;1.00;0.60;;;17.30;99.90;;;;;;5073375;28;20113;-80
2022/06/08 00:57:02;;;;;;;0.60;0.60;;;17.30;99.90;;;;;;5072762;28;20021;-81
2022/06/08 00:59:28;;;;;;;0.50;0.50;;;17.30;99.90;;;;;;5073153;28;20028;-81
2022/06/08 01:01:54;;;;;;;0.68;0.65;;;17.30;99.90;;;;;;5072620;28;20039;-81
2022/06/08 01:04:21;;;;;;;1.23;0.70;;;17.30;99.90;;;;;;5073154;28;20028;-81
2022/06/08 01:06:57;;;;;;;0.82;0.82;;;17.20;99.90;;;;;;5073074;28;20074;-82
2022/06/08 01:09:43;;;;;;;0.80;0.80;;;17.20;99.90;;;;;;5073693;28;20040;-82
2022/06/08 01:12:12;;;;;;;0.70;0.70;;;17.20;99.90;;;;;;5072998;28;20483;-82
2022/06/08 01:14:38;;;;;;;0.82;0.82;;;17.20;99.90;;;;;;5073868;28;20029;-81
2022/06/08 01:17:10;;;;;;;1.00;0.73;;;17.20;99.90;;;;;;5070958;28;20025;-81
2022/06/08 01:19:38;;;;;;;0.77;0.77;;;17.20;99.90;;;;;;5072667;28;20442;-80
2022/06/08 01:22:06;;;;;;;0.80;0.80;;;17.10;99.90;;;;;;5072684;28;20032;-82
2022/06/08 01:24:33;;;;;;;1.25;0.70;;;17.10;99.90;;;;;;5064187;28;20046;-81
2022/06/08 01:27:01;;;;;;;0.70;0.70;;;17.10;99.90;;;;;;5052281;28;20025;-81
2022/06/08 01:30:04;;;;;;;0.80;0.80;;;17.10;99.90;;;;;;5052609;28;20081;-82
2022/06/08 01:32:33;;;;;;;1.05;0.70;;;17.10;99.90;;;;;;5052398;28;20043;-82
2022/06/08 01:35:04;;;;;;;1.52;0.80;;;17.10;99.90;;;;;;5051862;28;20465;-80
2022/06/08 01:37:58;;;;;;;0.77;0.75;;;17.10;99.90;;;;;;5052279;28;20112;-82
2022/06/08 01:41:07;;;;;;;1.10;1.00;;;17.10;99.90;;;;;;5052686;28;20060;-82
2022/06/08 01:43:59;;;;;;;1.00;0.90;;;17.10;99.90;;;;;;5052710;28;20044;-82
2022/06/08 01:46:32;;;;;;;1.90;1.13;;;17.10;99.90;;;;;;5052092;28;20492;-80
2022/06/08 01:49:20;;;;;;;3.45;0.95;;;17.10;99.90;;;;;;5051834;28;20111;-80
2022/06/08 01:51:56;;;;;;;0.82;0.80;;;17.10;99.90;;;;;;5052084;28;20075;-81
2022/06/08 01:54:46;;;;;;;1.80;1.13;;;17.10;99.90;;;;;;5052585;28;20441;-81
2022/06/08 01:57:37;;;;;;;1.15;1.02;;;17.10;99.90;;;;;;5051796;28;20098;-81
2022/06/08 02:00:16;;;;;;;1.52;0.90;;;17.00;99.90;;;;;;5051707;28;20029;-80
2022/06/08 02:02:49;;;;;;;1.05;0.98;;;17.00;99.90;;;;;;5052246;28;20040;-81
2022/06/08 02:05:39;;;;;;;0.95;0.93;;;17.00;99.90;;;;;;5051811;28;20021;-81
2022/06/08 02:08:36;;;;;;;1.43;0.97;;;17.00;99.90;;;;;;5052080;28;20219;-81
2022/06/08 02:11:08;;;;;;;1.70;0.90;;;17.00;99.90;;;;;;5048520;28;20370;-82
2022/06/08 02:13:49;;;;;;;1.95;1.15;;;17.00;99.90;;;;;;5052227;28;20032;-82
2022/06/08 02:16:36;;;;;;;1.77;1.10;;;17.00;99.90;;;;;;5052114;28;20029;-82
2022/06/08 02:19:13;;;;;;;1.15;0.93;;;17.00;99.90;;;;;;5051498;28;20519;-82
2022/06/08 02:21:47;;;;;;;1.30;1.15;;;17.00;99.90;;;;;;5051917;28;20038;-82
2022/06/08 02:24:19;;;;;;;1.67;1.23;;;17.00;99.90;;;;;;5050102;28;20021;-81
2022/06/08 02:27:01;;;;;;;1.45;0.90;;;17.00;99.90;;;;;;5052099;28;20187;-81
2022/06/08 02:29:42;;;;;;;1.83;1.20;;;17.00;99.90;;;;;;5051954;28;20037;-82
2022/06/08 02:35:04;;;;;;;1.20;1.10;;;17.00;99.90;;;;;;5051481;28;20128;-81
2022/06/08 02:37:33;;;;;;;1.35;1.23;;;17.00;99.90;;;;;;5051838;28;20111;-82
2022/06/08 02:40:12;;;;;;;1.50;1.00;;;17.00;99.90;;;;;;5051646;28;20021;-81
2022/06/08 02:42:42;;;;;;;1.17;0.95;;;17.00;99.90;;;;;;5052073;28;20072;-82
2022/06/08 02:45:13;;;;;;;2.25;1.10;;;17.00;99.90;;;;;;5051118;28;20056;-81
2022/06/08 02:47:41;;;;;;;1.05;0.98;;;17.00;99.90;;;;;;5053885;28;20186;-82
2022/06/08 02:50:14;;;;;;;1.55;1.30;;;16.90;99.90;;;;;;5055056;28;20025;-81
2022/06/08 02:52:45;;;;;;;2.45;1.25;;;16.90;99.90;;;;;;5055779;28;20132;-83
2022/06/08 02:55:36;;;;;;;1.73;1.27;;;16.90;99.90;;;;;;5055221;28;20417;-82
2022/06/08 02:58:31;;;;;;;1.55;1.33;;;16.90;99.90;;;;;;5054903;28;20056;-82
2022/06/08 03:01:13;;;;;;;1.77;1.63;;;16.90;99.90;;;;;;5052057;28;20094;-82
2022/06/08 03:03:47;;;;;;;1.70;1.50;;;16.90;99.90;;;;;;5055356;28;20154;-81
2022/06/08 03:06:17;;;;;;;2.75;1.48;;;16.90;99.90;;;;;;5057337;28;20476;-81
2022/06/08 03:08:56;;;;;;;1.83;1.50;;;16.90;99.90;;;;;;5055509;28;20067;-81
2022/06/08 03:11:25;;;;;;;2.40;1.70;;;16.90;99.90;;;;;;5054965;28;20025;-81
2022/06/08 03:13:56;;;;;;;2.92;1.70;;;16.90;99.90;;;;;;5056396;28;20029;-81
2022/06/08 03:16:28;;;;;;;;;;;16.90;99.90;;;;;;5055949;28;20029;-81
2022/06/08 03:18:53;;;;;;;2.17;1.60;;;16.90;99.90;;;;;;5073576;28;19904;-81
2022/06/08 03:21:19;;;;;;;2.63;1.83;;;16.90;99.90;;;;;;5074423;28;20024;-81
2022/06/08 03:23:46;;;;;;;2.00;1.80;;;16.90;99.90;;;;;;5054722;28;20083;-82
2022/06/08 03:26:12;;;;;;;2.40;1.65;;;16.90;99.90;;;;;;5054255;28;20414;-83
2022/06/08 03:28:38;;;;;;;1.52;1.42;;;16.90;99.90;;;;;;5055178;28;20075;-83
2022/06/08 03:31:03;;;;;;;2.30;1.77;;;16.90;99.90;;;;;;5054355;28;20033;-81
2022/06/08 03:33:29;;;;;;;2.78;1.77;;;16.90;99.90;;;;;;5054896;28;20100;-81
2022/06/08 03:35:54;;;;;;;1.92;1.67;;;16.90;99.90;;;;;;5058215;28;20021;-81
2022/06/08 03:38:20;;;;;;;1.90;1.52;;;16.90;99.90;;;;;;5062181;28;20070;-81
2022/06/08 03:40:46;;;;;;;2.50;1.48;;;17.00;99.90;;;;;;5056359;28;20029;-82
2022/06/08 03:43:11;;;;;;;1.70;1.23;;;17.00;99.90;;;;;;5054019;28;20138;-82
2022/06/08 03:45:44;;;;;;;2.35;1.92;;;17.00;99.90;;;;;;5052952;28;20049;-82
2022/06/08 03:48:10;;;;;;;2.35;1.73;;;17.10;99.90;;;;;;5054430;28;20043;-81
2022/06/08 03:50:37;;;;;;;1.98;1.45;;;17.10;99.90;;;;;;5054546;28;20485;-82
2022/06/08 03:53:08;;;;;;;1.95;1.58;;;17.10;99.90;;;;;;5053889;28;20021;-77
2022/06/08 03:55:35;;;;;;;2.78;1.80;;;17.20;99.90;;;;;;5054603;28;20025;-82
2022/06/08 03:58:02;;;;;;;2.35;1.92;;;17.20;99.90;;;;;;5052933;28;20361;-83
2022/06/08 04:00:28;;;;;;;2.22;1.77;;;17.20;99.90;;;;;;5052943;28;20462;-83
2022/06/08 04:02:54;;;;;;;2.75;1.70;;;17.30;99.90;;;;;;5053990;28;20120;-81
2022/06/08 04:05:20;;;;;;;2.15;1.90;;;17.40;99.90;;;;;;5053688;28;20032;-81
2022/06/08 04:07:46;;;;;;;3.55;1.70;;;17.40;99.90;;;;;;5054201;28;20451;-83
2022/06/08 04:10:13;;;;;;;2.63;2.25;;;17.40;99.90;;;;;;5053516;28;20117;-82
2022/06/08 04:12:39;;;;;;;2.95;2.10;;;17.40;99.90;;;;;;5053960;28;20021;-82
2022/06/08 04:15:05;;;;;;;2.42;1.70;;;17.40;99.90;;;;;;5054215;28;20373;-76
2022/06/08 04:17:31;;;;;;;2.38;1.65;;;17.40;99.90;;;;;;5054029;28;20031;-82
2022/06/08 04:19:57;;;;;;;2.25;1.45;;;17.40;99.90;;;;;;5053888;28;20032;-82
2022/06/08 04:22:30;;;;;;;2.67;2.03;;;17.40;99.90;;;;;;5053671;28;20116;-82
2022/06/08 04:24:57;;;;;;;2.08;1.65;;;17.40;99.90;;;;;;5054316;28;20033;-82
2022/06/08 04:27:22;;;;;;;2.38;1.90;;;17.40;99.90;;;;;;5053523;28;20109;-82
2022/06/08 04:29:48;;;;;;;2.70;1.90;;;17.40;99.90;;;;;;5053878;28;20075;-82
2022/06/08 04:32:14;;;;;;;2.85;2.28;;;17.40;99.90;;;;;;5061675;28;20410;-81
2022/06/08 04:34:41;;;;;;;2.30;2.03;;;17.40;99.90;;;;;;5073699;28;20032;-81
2022/06/08 04:37:08;;;;;;;3.75;2.30;;;17.40;99.90;;;;;;5066767;28;20644;-76
2022/06/08 04:39:33;;;;;;;2.65;2.05;;;17.40;99.90;;;;;;5057351;28;20028;-82
2022/06/08 04:41:59;;;;;;;2.92;2.25;;;17.50;99.90;;;;;;5055838;28;20036;-82
2022/06/08 04:44:26;;;;;;;2.78;1.90;;;17.50;99.90;;;;;;5052560;28;20056;-82
2022/06/08 04:46:52;;;;;;;3.13;2.22;;;17.50;99.90;;;;;;5055900;28;20029;-80
2022/06/08 04:49:18;;;;;;;4.13;2.08;;;17.60;99.90;;;;;;5052958;28;20039;-82
2022/06/08 04:51:45;;;;;;;3.38;2.28;;;17.60;99.90;;;;;;5052980;28;20033;-82
2022/06/08 04:54:10;;;;;;;2.45;1.92;;;17.60;99.90;;;;;;5054580;28;20449;-81
2022/06/08 04:56:36;;;;;;;3.60;2.13;;;17.70;99.90;;;;;;5052520;28;20124;-82
2022/06/08 04:59:02;;;;;;;2.35;1.75;;;17.70;99.90;;;;;;5052297;28;20385;-80
2022/06/08 05:01:28;;;;;;;3.05;1.90;;;17.70;99.90;;;;;;5053049;28;20092;-82
2022/06/08 05:03:54;;;;;;;3.20;2.58;;;17.80;99.90;;;;;;5055126;28;20471;-80
2022/06/08 05:06:20;;;;;;;2.83;1.85;;;17.80;99.90;;;;;;5052731;28;20432;-82
2022/06/08 05:08:46;;;;;;;2.80;2.15;;;17.80;99.90;;;;;;5052863;28;20017;-81
2022/06/08 05:11:14;;;;;;;2.28;1.88;;;17.90;99.90;;;;;;5055773;28;20125;-80
2022/06/08 05:13:40;;;;;;;2.78;1.38;;;17.90;99.90;;;;;;5063507;28;20029;-80
2022/06/08 05:16:06;;;;;;;3.05;1.98;;;17.90;99.90;;;;;;5053284;28;20519;-81
2022/06/08 05:18:33;;;;;;;2.47;1.63;;;18.00;99.90;;;;;;5052478;28;20040;-80
2022/06/08 05:20:58;;;;;;;2.47;1.73;;;18.00;99.90;;;;;;5052669;28;20079;-81
2022/06/08 05:23:28;;;;;;;2.22;1.70;;;18.10;99.90;;;;;;5051644;28;20389;-81
2022/06/08 05:25:54;;;;;;;2.35;2.03;;;18.10;99.90;;;;;;5052574;28;20025;-80
2022/06/08 05:28:20;;;;;;;1.90;1.63;;;18.20;99.90;;;;;;5051981;28;20029;-80
2022/06/08 05:30:46;;;;;;;2.55;1.60;;;18.20;99.90;;;;;;5052320;28;20020;-80
2022/06/08 05:33:12;;;;;;;2.13;1.60;;;18.30;99.90;;;;;;5051842;28;20105;-80
2022/06/08 05:35:39;;;;;;;2.38;1.70;;;18.30;99.90;;;;;;5052207;28;20033;-81
2022/06/08 05:38:06;;;;;;;9.48;4.95;;;18.30;99.90;;;;;;5052038;28;20465;-79
2022/06/08 05:40:32;;;;;;;2.20;1.52;;;18.40;99.90;;;;;;5051608;28;20035;-80
2022/06/08 05:43:00;;;;;;;4.43;1.55;;;18.40;99.90;;;;;;5052383;28;20024;-80
2022/06/08 05:45:28;;;;;;;2.28;1.55;;;18.40;99.90;;;;;;5054031;28;20392;-80
2022/06/08 05:47:54;;;;;;;2.38;1.35;;;18.40;99.90;;;;;;5051740;28;20415;-82
2022/06/08 05:50:20;;;;;;;1.42;1.33;;;18.50;99.90;;;;;;5051935;28;20060;-80
2022/06/08 05:52:47;;;;;;;3.22;1.77;;;18.50;99.90;;;;;;5052246;28;20389;-81
2022/06/08 05:55:14;;;;;;;1.90;1.42;;;18.50;99.90;;;;;;5051249;28;20037;-83
2022/06/08 05:57:41;;;;;;;1.80;1.42;;;18.50;99.90;;;;;;5052150;28;20120;-82
2022/06/08 06:00:10;;;;;;;1.90;1.70;;;18.60;99.90;;;;;;5052199;28;20036;-81
2022/06/08 06:02:36;;;;;;;1.98;1.20;;;18.60;99.90;;;;;;5051694;28;20105;-82
2022/06/08 06:05:03;;;;;;;2.53;1.48;;;18.70;99.90;;;;;;5051703;28;20483;-82
2022/06/08 06:07:29;;;;;;;1.63;1.52;;;18.70;99.90;;;;;;5051554;28;20036;-82
2022/06/08 06:09:55;;;;;;;2.22;1.55;;;18.70;99.90;;;;;;5051978;28;20393;-82
2022/06/08 06:12:20;;;;;;;1.52;1.40;;;18.80;99.90;;;;;;5051472;28;20036;-84
2022/06/08 06:14:46;;;;;;;2.45;1.80;;;18.80;99.90;;;;;;5057607;28;20032;-84
2022/06/08 06:17:12;;;;;;;2.00;1.50;;;18.90;99.90;;;;;;5071943;28;20042;-84
2022/06/08 06:19:38;;;;;;;1.60;1.48;;;19.00;99.90;;;;;;5071975;28;20095;-84
2022/06/08 06:22:04;;;;;;;1.48;1.38;;;19.20;99.90;;;;;;5057972;28;20107;-85
2022/06/08 06:24:30;;;;;;;1.50;1.40;;;19.30;99.90;;;;;;5055659;28;20464;-85
2022/06/08 06:26:56;;;;;;;1.40;1.30;;;19.50;99.90;;;;;;5055757;28;20021;-85
2022/06/08 06:29:22;;;;;;;1.60;1.33;;;19.70;99.90;;;;;;5054212;28;20131;-85
2022/06/08 06:31:55;;;;;;;2.17;1.70;;;19.90;99.90;;;;;;5055506;28;20448;-85
2022/06/08 06:34:23;;;;;;;1.42;1.33;;;20.10;99.90;;;;;;5056205;28;20064;-83
2022/06/08 06:36:52;;;;;;;1.38;1.27;;;20.20;99.90;;;;;;5055665;28;20539;-82
2022/06/08 06:39:17;;;;;;;2.05;1.27;;;20.20;99.40;;;;;;5058256;28;20071;-83
2022/06/08 06:41:44;;;;;;;2.08;1.40;;;20.30;98.60;;;;;;5056125;28;20373;-84
2022/06/08 06:44:10;;;;;;;1.30;1.20;;;20.50;98.50;;;;;;5055575;28;20033;-84
2022/06/08 06:46:35;;;;;;;2.10;1.52;;;20.60;97.80;;;;;;5069186;28;20025;-84
2022/06/08 06:49:02;;;;;;;1.83;1.45;;;20.60;97.00;;;;;;5075249;28;20103;-83
2022/06/08 06:51:27;;;;;;;1.85;1.45;;;20.70;96.20;;;;;;5074945;28;20051;-83
2022/06/08 06:53:53;;;;;;;1.58;1.48;;;20.70;95.80;;;;;;5075031;28;20032;-82
2022/06/08 06:56:19;;;;;;;2.40;1.33;;;20.80;95.90;;;;;;5074945;28;20131;-82
2022/06/08 06:58:48;;;;;;;1.70;1.30;;;20.80;95.20;;;;;;5075382;28;20083;-82
2022/06/08 07:01:15;;;;;;;2.83;1.73;;;21.00;95.00;;;;;;5072201;28;20048;-83
2022/06/08 07:03:42;;;;;;;1.25;1.15;;;21.10;94.00;;;;;;5075621;28;20064;-84
2022/06/08 07:06:07;;;;;;;2.45;1.70;;;21.20;93.10;;;;;;5075562;28;20373;-83
2022/06/08 07:08:33;;;;;;;1.17;1.08;;;21.30;92.90;;;;;;5063436;28;20069;-83
2022/06/08 07:13:43;;;;;;;1.20;1.10;;;21.40;92.40;;;;;;5063613;28;20035;-84
2022/06/08 07:16:09;;;;;;;1.15;1.05;;;21.60;92.00;;;;;;5066020;28;20099;-85
2022/06/08 07:18:34;;;;;;;2.13;1.50;;;21.90;91.60;;;;;;5055741;28;20078;-86
2022/06/08 07:21:01;;;;;;;1.40;1.17;;;22.00;91.10;;;;;;5055493;28;20107;-86
2022/06/08 07:23:26;;;;;;;1.65;1.55;;;22.20;90.40;;;;;;5054633;28;20029;-86
2022/06/08 07:25:52;;;;;;;1.50;1.40;;;22.30;88.70;;;;;;5055177;28;20091;-86
2022/06/08 07:28:18;;;;;;;1.50;1.30;;;22.40;87.70;;;;;;5054411;28;20485;-85
2022/06/08 07:30:43;;;;;;;2.00;1.80;;;22.50;86.20;;;;;;5055109;28;20052;-86
2022/06/08 07:33:09;;;;;;;1.08;1.00;;;22.40;84.90;;;;;;5053415;28;20075;-86
2022/06/08 07:35:34;;;;;;;1.33;1.20;;;22.40;85.60;;;;;;5054094;28;20408;-86
2022/06/08 07:38:00;;;;;;;1.88;1.30;;;22.40;86.10;;;;;;5054818;28;20036;-86
2022/06/08 07:40:26;;;;;;;1.60;1.45;;;22.40;86.50;;;;;;5054495;28;20029;-86
2022/06/08 07:42:51;;;;;;;1.58;1.45;;;22.30;86.00;;;;;;5054536;28;20042;-85
2022/06/08 07:45:17;;;;;;;1.95;1.75;;;22.30;85.90;;;;;;5057342;28;20118;-76
2022/06/08 07:50:28;;;;;;;1.80;1.70;;;22.50;87.70;;;;;;5074038;28;20102;-84
2022/06/08 07:52:55;;;;;;;1.45;1.17;;;22.70;86.40;;;;;;5074058;28;20361;-83
2022/06/08 07:55:21;;;;;;;1.38;1.27;;;23.00;85.40;;;;;;5073783;28;20036;-83
2022/06/08 07:57:47;;;;;;;1.60;1.40;;;23.20;84.80;;;;;;5074279;28;20048;-82
2022/06/08 08:00:15;;;;;;;2.17;1.90;;;23.30;83.60;;;;;;5074276;28;20039;-83
2022/06/08 08:02:41;;;;;;;1.88;1.77;;;23.50;82.90;;;;;;5073968;28;20052;-82
2022/06/08 08:05:09;;;;;;;1.65;1.55;;;23.50;80.30;;;;;;5074125;28;20096;-83
2022/06/08 08:07:36;;;;;;;1.70;1.42;;;23.50;80.10;;;;;;5055707;28;20373;-84
2022/06/08 08:10:06;;;;;;;1.42;1.33;;;23.40;79.70;;;;;;5054767;28;20186;-84
2022/06/08 08:12:31;;;;;;;1.83;1.60;;;23.30;80.30;;;;;;5052155;28;20032;-84
2022/06/08 08:14:57;;;;;;;2.00;1.80;;;23.20;80.20;;;;;;5053970;28;20389;-84
2022/06/08 08:17:22;;;;;;;4.10;2.47;;;23.20;80.40;;;;;;5053457;28;20025;-83
2022/06/08 08:19:48;;;;;;;1.95;1.75;;;23.10;80.80;;;;;;5053623;28;20453;-84
2022/06/08 08:22:19;;;;;;;1.42;1.33;;;23.00;79.90;;;;;;5053878;28;20070;-84
2022/06/08 08:24:45;;;;;;;1.45;1.35;;;22.90;80.90;;;;;;5053054;28;20334;-86
2022/06/08 08:27:11;;;;;;;2.35;1.83;;;22.90;81.90;;;;;;5053693;28;20026;-86
2022/06/08 08:29:37;;;;;;;1.67;1.40;;;22.80;81.40;;;;;;5053277;28;20021;-86
2022/06/08 08:32:03;;;;;;;1.45;1.35;;;22.70;81.10;;;;;;5053687;28;20143;-85
2022/06/08 08:34:29;;;;;;;1.38;1.27;;;22.70;80.90;;;;;;5053204;28;20025;-86
2022/06/08 08:36:55;;;;;;;2.15;1.70;;;22.70;81.60;;;;;;5053738;28;20037;-84
2022/06/08 08:39:22;;;;;;;1.58;1.48;;;22.70;80.80;;;;;;5055397;28;20025;-79
2022/06/08 08:44:41;;;;;;;2.50;1.50;;;22.60;78.90;;;;;;5052060;28;20394;-83
2022/06/08 08:47:16;;;;;;;1.38;1.27;;;22.50;79.10;;;;;;5053516;28;20032;-86
2022/06/08 08:50:22;;;;;;;1.38;1.27;;;22.50;78.30;;;;;;5052781;28;20649;-83
2022/06/08 08:52:48;;;;;;;1.98;1.60;;;22.40;77.80;;;;;;5044424;28;20485;-87
2022/06/08 08:55:24;;;;;;;1.27;1.10;;;22.40;78.30;;;;;;5058050;28;20028;-86
2022/06/08 08:58:07;;;;;;;3.25;1.42;;;22.40;77.80;;;;;;5054801;28;20495;-82
2022/06/08 09:00:39;;;;;;;1.50;1.40;;;22.40;77.80;;;;;;5059398;28;20036;-86
2022/06/08 09:03:30;;;;;;;2.05;1.27;;;22.30;76.70;;;;;;5053646;28;20117;-84
2022/06/08 09:06:07;;;;;;;1.40;1.30;;;22.40;77.10;;;;;;5045380;28;20044;-83
2022/06/08 09:08:33;;;;;;;1.63;1.20;;;22.40;77.80;;;;;;5052729;28;20477;-83
2022/06/08 09:11:01;;;;;;;1.10;1.00;;;22.50;77.50;;;;;;5053230;28;20032;-83
2022/06/08 09:13:45;;;;;;;4.90;1.27;;;22.60;77.00;;;;;;5063243;28;20110;-85
2022/06/08 09:16:27;;;;;;;1.52;1.10;;;22.70;75.60;;;;;;5073398;28;20103;-83
2022/06/08 09:18:53;;;;;;;1.20;1.10;;;22.70;73.30;;;;;;5074288;28;20103;-85
2022/06/08 09:21:21;;;;;;;1.42;1.13;;;22.80;74.50;;;;;;5079147;28;20060;-85
2022/06/08 09:23:52;;;;;;;1.33;1.23;;;22.80;74.40;;;;;;5085616;28;20033;-84
2022/06/08 09:26:24;;;;;;;3.80;2.15;;;22.80;72.80;;;;;;5073534;28;20020;-83
2022/06/08 09:29:11;;;;;;;0.80;0.80;;;22.90;73.50;;;;;;5073298;28;20058;-83
2022/06/08 09:31:38;;;;;;;0.98;0.95;;;22.90;73.00;;;;;;5072780;28;20035;-83
2022/06/08 09:34:21;;;;;;;1.20;1.00;;;22.90;71.40;;;;;;5073256;28;20025;-83
2022/06/08 09:37:09;;;;;;;1.20;1.10;;;22.90;70.50;;;;;;5072740;28;20162;-85
2022/06/08 09:39:35;;;;;;;1.60;1.10;;;23.00;70.30;;;;;;5072589;28;20032;-86
2022/06/08 09:42:16;;;;;;;1.13;0.98;;;23.00;70.60;;;;;;5072810;28;20029;-87
2022/06/08 09:45:14;;;;;;;2.67;1.40;;;23.00;70.60;;;;;;5072347;28;20048;-84
2022/06/08 09:51:28;;;;;;;2.45;1.20;;;23.00;70.40;;;;;;5072359;28;20074;-83
2022/06/08 09:54:29;;;;;;;1.17;1.08;;;23.00;71.10;;;;;;5065291;28;20067;-85
2022/06/08 09:57:26;;;;;;;3.60;1.17;;;23.00;70.20;;;;;;5072286;28;20083;-84
2022/06/08 10:00:04;;;;;;;1.30;1.20;;;23.00;69.10;;;;;;5073058;28;20023;-86
2022/06/08 10:02:57;;;;;;;1.20;1.00;;;23.00;69.20;;;;;;5072438;28;20036;-83
2022/06/08 10:05:55;;;;;;;1.35;1.25;;;23.00;69.50;;;;;;5072546;28;20078;-83
2022/06/08 10:08:38;;;;;;;1.40;1.20;;;23.10;71.10;;;;;;5073134;28;20024;-86
2022/06/08 10:11:34;;;;;;;1.50;1.15;;;23.10;71.60;;;;;;5072640;28;20453;-84
2022/06/08 10:14:01;;;;;;;1.45;1.20;;;23.10;71.50;;;;;;5072745;28;20037;-84
2022/06/08 10:16:32;;;;;;;1.23;1.13;;;23.00;68.80;;;;;;5075056;28;20021;-85
2022/06/08 10:19:05;;;;;;;1.00;0.95;;;22.90;69.60;;;;;;5072785;28;20056;-85
2022/06/08 10:21:50;;;;;;;1.25;1.10;;;22.90;69.20;;;;;;5072241;28;20066;-84
2022/06/08 10:24:19;;;;;;;3.60;1.20;;;22.80;68.50;;;;;;5072625;28;20027;-87
2022/06/08 10:27:06;;;;;;;1.42;1.08;;;22.70;69.70;;;;;;5070624;28;20021;-86
2022/06/08 10:29:46;;;;;;;1.15;1.00;;;22.70;70.60;;;;;;5071454;28;20099;-85
2022/06/08 10:32:11;;;;;;;1.92;1.00;;;22.70;71.10;;;;;;5071904;28;20085;-84
2022/06/08 10:34:37;;;;;;;1.23;1.00;;;22.70;70.90;;;;;;5071393;28;20481;-84
2022/06/08 10:37:06;;;;;;;1.10;1.00;;;22.70;70.90;;;;;;5072279;28;20052;-84
2022/06/08 10:39:33;;;;;;;1.35;1.23;;;22.70;71.20;;;;;;5071335;28;20025;-83
2022/06/08 10:45:23;;;;;;;1.35;1.13;;;22.70;71.40;;;;;;5071882;28;20051;-85
2022/06/08 10:47:58;;;;;;;1.00;0.90;;;22.80;70.80;;;;;;5071141;28;20090;-87
2022/06/08 10:50:31;;;;;;;1.35;1.15;;;22.80;70.30;;;;;;5074801;28;20048;-84
2022/06/08 10:54:53;;;;;;;1.88;1.30;;;22.70;70.80;;;;;;5084179;28;20038;-83
2022/06/08 10:55:45;;;;;;;1.35;1.10;;;22.70;71.40;;;;;;5072803;28;20037;-85
2022/06/08 10:58:13;;;;;;;2.80;1.55;;;22.80;72.10;;;;;;5072104;28;20108;-84
2022/06/08 11:00:48;;;;;;;2.30;1.48;;;22.80;71.80;;;;;;5071641;28;20470;-85
2022/06/08 11:03:36;;;;;;;1.67;1.08;;;22.80;72.20;;;;;;5072365;28;20346;-85
2022/06/08 11:06:09;;;;;;;1.33;1.20;;;22.80;72.60;;;;;;5068490;28;20016;-85
2022/06/08 11:08:52;;;;;;;1.15;1.05;;;22.80;72.60;;;;;;5053553;28;20480;-87
2022/06/08 11:11:37;;;;;;;1.30;1.20;;;22.90;72.20;;;;;;5055455;28;20032;-84
2022/06/08 11:14:28;;;;;;;1.08;0.98;;;22.90;70.60;;;;;;5055406;28;20040;-84
2022/06/08 11:17:00;;;;;;;2.13;1.00;;;22.90;68.90;;;;;;5054747;28;20036;-84
2022/06/08 11:19:27;;;;;;;1.25;1.10;;;23.00;69.20;;;;;;5055333;28;20128;-84
2022/06/08 11:21:58;;;;;;;2.83;1.60;;;23.00;68.90;;;;;;5054814;28;20104;-85
2022/06/08 11:24:29;;;;;;;1.55;1.45;;;23.00;69.20;;;;;;5055631;28;20087;-86
2022/06/08 11:27:00;;;;;;;1.10;1.00;;;23.00;68.30;;;;;;5054735;28;20031;-86
2022/06/08 11:29:40;;;;;;;1.23;1.10;;;23.20;69.40;;;;;;5055315;28;20029;-84
2022/06/08 11:32:25;;;;;;;1.15;1.05;;;23.20;69.40;;;;;;5055273;28;20107;-85
2022/06/08 11:34:57;;;;;;;1.90;1.33;;;23.20;70.00;;;;;;5054453;28;20477;-83
2022/06/08 11:37:34;;;;;;;1.20;1.10;;;23.30;70.40;;;;;;5054966;28;20032;-85
2022/06/08 11:40:19;;;;;;;1.15;1.05;;;23.30;68.80;;;;;;5054877;28;20230;-84
2022/06/08 11:42:52;;;;;;;1.35;1.10;;;23.40;68.10;;;;;;5054363;28;20103;-85
2022/06/08 11:45:38;;;;;;;1.10;1.00;;;23.40;68.30;;;;;;5055119;28;20111;-82
2022/06/08 11:48:12;;;;;;;1.30;1.10;;;23.50;70.10;;;;;;5054846;28;20444;-85
2022/06/08 11:50:59;;;;;;;1.27;1.17;;;23.50;71.00;;;;;;5053997;28;20437;-83
2022/06/08 11:53:39;;;;;;;1.25;1.00;;;23.60;69.20;;;;;;5054463;28;20033;-84
2022/06/08 11:56:14;;;;;;;1.90;1.13;;;23.60;69.10;;;;;;5054819;28;20064;-86
2022/06/08 11:58:50;;;;;;;1.70;1.60;;;23.60;69.40;;;;;;5053914;28;20025;-84
2022/06/08 12:01:20;;;;;;;1.90;1.25;;;23.70;69.70;;;;;;5054945;28;20028;-83
2022/06/08 12:03:57;;;;;;;1.45;1.30;;;23.60;69.50;;;;;;5054364;28;20071;-85
2022/06/08 12:06:25;;;;;;;1.30;1.10;;;23.60;69.70;;;;;;5054564;28;20033;-84
2022/06/08 12:09:03;;;;;;;1.13;1.02;;;23.50;68.50;;;;;;5054519;28;20044;-82
2022/06/08 12:11:30;;;;;;;4.95;1.73;;;23.50;69.20;;;;;;5054942;28;20025;-85
2022/06/08 12:14:14;;;;;;;1.02;0.93;;;23.50;69.30;;;;;;5054140;28;20135;-86
2022/06/08 12:16:51;;;;;;;3.55;1.58;;;23.50;70.30;;;;;;5054135;28;20041;-83
2022/06/08 12:19:20;;;;;;;3.08;1.30;;;23.50;70.00;;;;;;5054236;28;20029;-86
2022/06/08 12:21:49;;;;;;;1.10;1.00;;;23.40;69.90;;;;;;5053794;28;20047;-85
2022/06/08 12:24:18;;;;;;;4.72;1.30;;;23.40;69.00;;;;;;5055007;28;20465;-85
2022/06/08 12:26:58;;;;;;;1.63;1.20;;;23.40;69.10;;;;;;5053771;28;20078;-82
2022/06/08 12:29:52;;;;;;;1.67;1.20;;;23.40;69.40;;;;;;5054575;28;20151;-86
2022/06/08 12:32:23;;;;;;;1.38;1.20;;;23.30;68.90;;;;;;5045921;28;20044;-87
2022/06/08 12:35:08;;;;;;;1.27;1.17;;;23.40;69.30;;;;;;5053290;28;20029;-84
2022/06/08 12:37:46;;;;;;;1.33;1.08;;;23.30;69.70;;;;;;5053780;28;20021;-86
2022/06/08 12:40:33;;;;;;;1.90;1.40;;;23.30;69.60;;;;;;5053898;28;20023;-83
2022/06/08 12:43:08;;;;;;;1.42;1.10;;;23.30;69.70;;;;;;5053609;28;20044;-84
2022/06/08 12:45:38;;;;;;;1.27;1.17;;;23.40;69.90;;;;;;5053671;28;20449;-84
2022/06/08 12:48:24;;;;;;;3.75;1.67;;;23.40;69.20;;;;;;5054709;28;20512;-85
2022/06/08 12:50:52;;;;;;;1.25;1.10;;;23.40;69.00;;;;;;5053370;28;20602;-82
2022/06/08 12:53:18;;;;;;;1.35;1.17;;;23.40;69.40;;;;;;5056681;28;20033;-83
2022/06/08 12:55:44;;;;;;;1.38;1.17;;;23.50;68.70;;;;;;5054060;28;20033;-82
2022/06/08 12:58:10;;;;;;;2.60;1.10;;;23.50;68.40;;;;;;5054547;28;20460;-84
2022/06/08 13:00:37;;;;;;;1.10;1.00;;;23.50;68.20;;;;;;5053533;28;20024;-84
2022/06/08 13:03:36;;;;;;;1.20;1.10;;;23.50;67.90;;;;;;5053244;28;20072;-84
2022/06/08 13:06:01;;;;;;;1.27;1.10;;;23.50;67.70;;;;;;5009042;28;20045;-86
2022/06/08 13:08:28;;;;;;;1.23;1.05;;;23.50;68.00;;;;;;5053572;28;20025;-86
2022/06/08 13:10:56;;;;;;;2.30;1.20;;;23.60;67.90;;;;;;5052872;28;20029;-86
2022/06/08 13:13:29;;;;;;;1.35;0.98;;;23.60;67.60;;;;;;5053434;28;20112;-87
2022/06/08 13:15:57;;;;;;;1.35;1.10;;;23.60;67.00;;;;;;5052992;28;20029;-84
2022/06/08 13:18:25;;;;;;;2.42;1.15;;;23.60;66.50;;;;;;5053574;28;20107;-83
2022/06/08 13:20:53;;;;;;;1.90;0.80;;;23.70;66.40;;;;;;5052956;28;20025;-83
2022/06/08 13:23:19;;;;;;;1.10;1.05;;;23.70;66.10;;;;;;5056219;28;20064;-81
2022/06/08 13:25:46;;;;;;;1.35;1.25;;;23.70;64.90;;;;;;5064257;28;20080;-83
2022/06/08 13:28:20;;;;;;;1.25;1.15;;;23.70;65.00;;;;;;5055523;28;20056;-82